YXHG weather

Gold Coast University Hospital Helipad
Gold Coast, Queensland, Australia

Public forecast

Using degrees Celsius for public forecast. Weather courtesy of forecast.io.

METAR (pilot weather report)

Closest report is Gold Coast Airport, 13.9 nm (25.8 km) SSE. Retrieved 2019/02/16 23:30 UTC (29 minutes ago):

YBCG 162330Z AUTO 15011KT 9999 // SCT048 28/15 Q1015 RF00.0/000.0

TAF (pilot weather forecast)

Closest forecast is Gold Coast Airport, 13.9 nm (25.8 km) SSE. Retrieved 2019/02/16 18:00 UTC (6 hours ago):

TAF YBCG 161726Z 1618/1718 20008KT 9999 FEW035 SCT060 FM170000 13014KT 9999 SCT045 FM170800 15008KT 9999 FEW040 FM171200 20007KT 9999 SCT035